BUQ weather

Joshua Mqabuko Nkomo International Airport
Bulawayo, Bulawayo Metropolitan Province, Zimbabwe

Public forecast

Using degrees Celsius for public forecast. Weather courtesy of forecast.io.

Current aviation weather report (METAR) for Joshua Mqabuko Nkomo International Airport

Report is more than 2 hours old.

Retrieved 2019/10/22 16:00 UTC (3 hours ago):

FVJN 221600Z 12014KT CAVOK 27/14 Q1014 NOSIG

Closest aviation forecast (TAF) to Joshua Mqabuko Nkomo International Airport

Forecast is more than 12 hours old.

Retrieved 2019/10/18 12:00 UTC (4 days ago):

TAF FVJN 181000Z 1812/1918 VRB06KT CAVOK